MSC Leanne — 3EXH3 — position and weather

sailwx.info

Track history (hours):
 
Tides and Currents Weather Stations Pressure Air Temp Water Temp Dewpoint Dewpoint Depression Visibility Wind Speed Wind Dir Waves Ship Positions

MSC Leanne

Last reported at 2015-Jan-20 03:28 UTC. Time now 2015-Feb-01 04:11 UTC.
Position N 27°21' W 079°22'.
Warning: this ship's position is 12 days out of date.

Length 294 m; draft 10.1 m.

Type: Ship (hazmat cat A). MMSI: 357723000.

Date/timePositionNaut miles runAvg speedWind from/ knotsBaromVisibWave heightAir tempDewpointWater temp
2015-Jan-20 03:28N 27°21' W 079°22'  
2015-Jan-16 21:04N 40°26' W 073°50'5 8.8
2015-Jan-16 20:33N 40°29' W 073°54'1212.2
2015-Jan-16 19:33N 40°38' W 074°04'5 4.8
2015-Jan-16 18:33N 40°41' W 074°09'0 0.3
2015-Jan-16 17:31N 40°41' W 074°09'0 0.0
2015-Jan-16 16:31N 40°41' W 074°09'0 0.0
2015-Jan-16 15:31N 40°41' W 074°09'0 0.0
2015-Jan-16 14:28N 40°41' W 074°09'0 0.0
2015-Jan-16 13:31N 40°41' W 074°09'0 0.0
2015-Jan-16 12:28N 40°41' W 074°09'0 0.0
2015-Jan-16 11:25N 40°41' W 074°09'0 0.0
2015-Jan-16 10:28N 40°41' W 074°09'0 0.0
2015-Jan-16 09:28N 40°41' W 074°09'0 0.0
2015-Jan-16 08:31N 40°41' W 074°09'0 0.0
2015-Jan-16 07:31N 40°41' W 074°09'0 0.0
2015-Jan-16 06:25N 40°41' W 074°09'0 0.0
2015-Jan-16 05:31N 40°41' W 074°09'0 0.0
2015-Jan-16 04:31N 40°41' W 074°09'0 0.0
2015-Jan-16 03:31N 40°41' W 074°09'0 0.0
2015-Jan-16 02:31N 40°41' W 074°09'0 0.0
2015-Jan-16 01:31N 40°41' W 074°09'0 0.0
2015-Jan-16 00:31N 40°41' W 074°09'0 0.0
2015-Jan-15 23:31N 40°41' W 074°09'0 0.0
2015-Jan-15 22:31N 40°41' W 074°09'0 0.0
2015-Jan-15 21:31N 40°41' W 074°09'0 0.0
2015-Jan-15 20:33N 40°41' W 074°09'3 2.8
2015-Jan-15 19:33N 40°39' W 074°07'7 7.1
2015-Jan-15 18:34N 40°33' W 074°02'1210.7
2015-Jan-15 17:29N 40°28' W 073°48'4 4.3
2015-Jan-15 16:29N 40°30' W 073°43'2 2.5
2015-Jan-15 15:32N 40°31' W 073°41'0 0.1
2015-Jan-15 14:32N 40°31' W 073°41'0 0.0
2015-Jan-15 13:29N 40°31' W 073°40'0 0.0
2015-Jan-15 12:32N 40°31' W 073°40'0 0.0
2015-Jan-15 11:32N 40°31' W 073°40'0 0.0
2015-Jan-15 10:32N 40°31' W 073°40'0 0.0
2015-Jan-15 09:32N 40°31' W 073°40'0 0.0
2015-Jan-15 08:32N 40°31' W 073°41'0 0.0
2015-Jan-15 07:32N 40°31' W 073°41'0 0.0
2015-Jan-15 06:32N 40°31' W 073°41'0 0.0
2015-Jan-15 05:32N 40°31' W 073°41'0 0.0
2015-Jan-15 04:32N 40°31' W 073°41'0 0.0
2015-Jan-15 03:32N 40°31' W 073°41'0 0.0
2015-Jan-15 02:32N 40°31' W 073°41'0 0.0
2015-Jan-15 01:32N 40°31' W 073°41'0 0.0
2015-Jan-15 00:32N 40°31' W 073°41'0 0.0
2015-Jan-14 23:32N 40°31' W 073°41'0 0.0
2015-Jan-14 22:32N 40°31' W 073°41'0 0.0
2015-Jan-14 21:32N 40°31' W 073°41'0 0.0
2015-Jan-14 20:32N 40°31' W 073°41'0 0.0
2015-Jan-14 19:29N 40°31' W 073°41'0 0.0
2015-Jan-14 18:32N 40°31' W 073°41'0 0.0
2015-Jan-14 17:32N 40°31' W 073°41'0 0.0
2015-Jan-14 16:32N 40°31' W 073°41'0 0.0
2015-Jan-14 15:32N 40°31' W 073°41'0 0.0
2015-Jan-14 14:32N 40°31' W 073°41'0 0.0
2015-Jan-14 13:32N 40°31' W 073°41'0 0.0
2015-Jan-14 12:32N 40°31' W 073°41'0 0.0
2015-Jan-14 11:32N 40°31' W 073°41'0 0.0
2015-Jan-14 10:32N 40°31' W 073°41'0 0.0
2015-Jan-14 09:32N 40°31' W 073°41'0 0.0
2015-Jan-14 08:32N 40°31' W 073°41'0 0.0
2015-Jan-14 07:26N 40°31' W 073°41'0 0.0
2015-Jan-14 06:29N 40°31' W 073°41'0 0.0
2015-Jan-14 05:32N 40°31' W 073°41'0 0.0
2015-Jan-14 04:20N 40°31' W 073°41'0 0.0
2015-Jan-14 03:32N 40°31' W 073°41'0 0.0
2015-Jan-14 02:23N 40°31' W 073°41'0 0.0
2015-Jan-14 01:23N 40°31' W 073°41'0 0.0
2015-Jan-14 00:23N 40°31' W 073°41'0 0.0
2015-Jan-13 23:14N 40°31' W 073°40'0 0.0
2015-Jan-13 22:26N 40°31' W 073°41'0 0.0
2015-Jan-13 21:32N 40°31' W 073°40'0 0.0
2015-Jan-13 20:29N 40°31' W 073°40'0 0.0
2015-Jan-13 18:32N 40°31' W 073°40'0 0.0
2015-Jan-13 17:32N 40°31' W 073°40'0 0.0
2015-Jan-13 16:32N 40°31' W 073°40'0 0.0
2015-Jan-13 15:20N 40°31' W 073°40'0 0.0
2015-Jan-13 14:20N 40°31' W 073°40'0 0.0
2015-Jan-13 13:20N 40°31' W 073°40'0 0.0
2015-Jan-13 12:26N 40°31' W 073°40'0 0.0
2015-Jan-13 11:20N 40°31' W 073°40'0 0.0
2015-Jan-13 10:32N 40°31' W 073°40'0 0.0
2015-Jan-13 09:26N 40°31' W 073°40'0 0.0
2015-Jan-13 08:32N 40°31' W 073°40'0 0.0
2015-Jan-13 07:32N 40°31' W 073°40'0 0.0
2015-Jan-13 06:32N 40°31' W 073°40'0 0.0
2015-Jan-13 05:26N 40°31' W 073°40'0 0.0
2015-Jan-13 04:26N 40°31' W 073°40'0 0.0
2015-Jan-13 03:32N 40°31' W 073°40'0 0.0
2015-Jan-13 02:32N 40°31' W 073°40'0 0.1
2015-Jan-13 00:21N 40°31' W 073°40'7 8.1
2015-Jan-12 23:32N 40°25' W 073°45'3411.4
2015-Jan-12 20:33N 39°51' W 073°42'1616.2
2015-Jan-12 19:33N 39°35' W 073°46'75 2.2
2015-Jan-11 09:04N 39°50' W 075°22'  
Track history (hours):
 
Tides and Currents Weather Stations Pressure Air Temp Water Temp Dewpoint Dewpoint Depression Visibility Wind Speed Wind Dir Waves Ship Positions

MSC Leanne

Last reported at 2015-Jan-20 03:28 UTC. Time now 2015-Feb-01 04:11 UTC.
Position N 27°21' W 079°22'.
Warning: this ship's position is 12 days out of date.

Length 294 m; draft 10.1 m.

Type: Ship (hazmat cat A). MMSI: 357723000.

Date/timePositionNaut miles runAvg speedWind from/ knotsBaromVisibWave heightAir tempDewpointWater temp
2015-Jan-20 03:28N 27°21' W 079°22'  
2015-Jan-16 21:04N 40°26' W 073°50'5 8.8
2015-Jan-16 20:33N 40°29' W 073°54'1212.2
2015-Jan-16 19:33N 40°38' W 074°04'5 4.8
2015-Jan-16 18:33N 40°41' W 074°09'0 0.3
2015-Jan-16 17:31N 40°41' W 074°09'0 0.0
2015-Jan-16 16:31N 40°41' W 074°09'0 0.0
2015-Jan-16 15:31N 40°41' W 074°09'0 0.0
2015-Jan-16 14:28N 40°41' W 074°09'0 0.0
2015-Jan-16 13:31N 40°41' W 074°09'0 0.0
2015-Jan-16 12:28N 40°41' W 074°09'0 0.0
2015-Jan-16 11:25N 40°41' W 074°09'0 0.0
2015-Jan-16 10:28N 40°41' W 074°09'0 0.0
2015-Jan-16 09:28N 40°41' W 074°09'0 0.0
2015-Jan-16 08:31N 40°41' W 074°09'0 0.0
2015-Jan-16 07:31N 40°41' W 074°09'0 0.0
2015-Jan-16 06:25N 40°41' W 074°09'0 0.0
2015-Jan-16 05:31N 40°41' W 074°09'0 0.0
2015-Jan-16 04:31N 40°41' W 074°09'0 0.0
2015-Jan-16 03:31N 40°41' W 074°09'0 0.0
2015-Jan-16 02:31N 40°41' W 074°09'0 0.0
2015-Jan-16 01:31N 40°41' W 074°09'0 0.0
2015-Jan-16 00:31N 40°41' W 074°09'0 0.0
2015-Jan-15 23:31N 40°41' W 074°09'0 0.0
2015-Jan-15 22:31N 40°41' W 074°09'0 0.0
2015-Jan-15 21:31N 40°41' W 074°09'0 0.0
2015-Jan-15 20:33N 40°41' W 074°09'3 2.8
2015-Jan-15 19:33N 40°39' W 074°07'7 7.1
2015-Jan-15 18:34N 40°33' W 074°02'1210.7
2015-Jan-15 17:29N 40°28' W 073°48'4 4.3
2015-Jan-15 16:29N 40°30' W 073°43'2 2.5
2015-Jan-15 15:32N 40°31' W 073°41'0 0.1
2015-Jan-15 14:32N 40°31' W 073°41'0 0.0
2015-Jan-15 13:29N 40°31' W 073°40'0 0.0
2015-Jan-15 12:32N 40°31' W 073°40'0 0.0
2015-Jan-15 11:32N 40°31' W 073°40'0 0.0
2015-Jan-15 10:32N 40°31' W 073°40'0 0.0
2015-Jan-15 09:32N 40°31' W 073°40'0 0.0
2015-Jan-15 08:32N 40°31' W 073°41'0 0.0
2015-Jan-15 07:32N 40°31' W 073°41'0 0.0
2015-Jan-15 06:32N 40°31' W 073°41'0 0.0
2015-Jan-15 05:32N 40°31' W 073°41'0 0.0
2015-Jan-15 04:32N 40°31' W 073°41'0 0.0
2015-Jan-15 03:32N 40°31' W 073°41'0 0.0
2015-Jan-15 02:32N 40°31' W 073°41'0 0.0
2015-Jan-15 01:32N 40°31' W 073°41'0 0.0
2015-Jan-15 00:32N 40°31' W 073°41'0 0.0
2015-Jan-14 23:32N 40°31' W 073°41'0 0.0
2015-Jan-14 22:32N 40°31' W 073°41'0 0.0
2015-Jan-14 21:32N 40°31' W 073°41'0 0.0
2015-Jan-14 20:32N 40°31' W 073°41'0 0.0
2015-Jan-14 19:29N 40°31' W 073°41'0 0.0
2015-Jan-14 18:32N 40°31' W 073°41'0 0.0
2015-Jan-14 17:32N 40°31' W 073°41'0 0.0
2015-Jan-14 16:32N 40°31' W 073°41'0 0.0
2015-Jan-14 15:32N 40°31' W 073°41'0 0.0
2015-Jan-14 14:32N 40°31' W 073°41'0 0.0
2015-Jan-14 13:32N 40°31' W 073°41'0 0.0
2015-Jan-14 12:32N 40°31' W 073°41'0 0.0
2015-Jan-14 11:32N 40°31' W 073°41'0 0.0
2015-Jan-14 10:32N 40°31' W 073°41'0 0.0
2015-Jan-14 09:32N 40°31' W 073°41'0 0.0
2015-Jan-14 08:32N 40°31' W 073°41'0 0.0
2015-Jan-14 07:26N 40°31' W 073°41'0 0.0
2015-Jan-14 06:29N 40°31' W 073°41'0 0.0
2015-Jan-14 05:32N 40°31' W 073°41'0 0.0
2015-Jan-14 04:20N 40°31' W 073°41'0 0.0
2015-Jan-14 03:32N 40°31' W 073°41'0 0.0
2015-Jan-14 02:23N 40°31' W 073°41'0 0.0
2015-Jan-14 01:23N 40°31' W 073°41'0 0.0
2015-Jan-14 00:23N 40°31' W 073°41'0 0.0
2015-Jan-13 23:14N 40°31' W 073°40'0 0.0
2015-Jan-13 22:26N 40°31' W 073°41'0 0.0
2015-Jan-13 21:32N 40°31' W 073°40'0 0.0
2015-Jan-13 20:29N 40°31' W 073°40'0 0.0
2015-Jan-13 18:32N 40°31' W 073°40'0 0.0
2015-Jan-13 17:32N 40°31' W 073°40'0 0.0
2015-Jan-13 16:32N 40°31' W 073°40'0 0.0
2015-Jan-13 15:20N 40°31' W 073°40'0 0.0
2015-Jan-13 14:20N 40°31' W 073°40'0 0.0
2015-Jan-13 13:20N 40°31' W 073°40'0 0.0
2015-Jan-13 12:26N 40°31' W 073°40'0 0.0
2015-Jan-13 11:20N 40°31' W 073°40'0 0.0
2015-Jan-13 10:32N 40°31' W 073°40'0 0.0
2015-Jan-13 09:26N 40°31' W 073°40'0 0.0
2015-Jan-13 08:32N 40°31' W 073°40'0 0.0
2015-Jan-13 07:32N 40°31' W 073°40'0 0.0
2015-Jan-13 06:32N 40°31' W 073°40'0 0.0
2015-Jan-13 05:26N 40°31' W 073°40'0 0.0
2015-Jan-13 04:26N 40°31' W 073°40'0 0.0
2015-Jan-13 03:32N 40°31' W 073°40'0 0.0
2015-Jan-13 02:32N 40°31' W 073°40'0 0.1
2015-Jan-13 00:21N 40°31' W 073°40'7 8.1
2015-Jan-12 23:32N 40°25' W 073°45'3411.4
2015-Jan-12 20:33N 39°51' W 073°42'1616.2
2015-Jan-12 19:33N 39°35' W 073°46'75 2.2
2015-Jan-11 09:04N 39°50' W 075°22'  

Dump ship's entire track history